Airfield :
LOGIN :

Register | Disclaimer

   EN    FR    IT 

 










Legend :    VFR   Marginal VFR   IFR   Intensive IFR   Very Intensive IFR
Visi :
Ceiling :
>= 8 km
>= 3000ft
5 to 8 km
1000 to 3000 ft
1500m to 5 km
500 to 1000 ft
800 to 1500m
200 to 500 ft
< 800m
< 200 ft
Symbols :   Thunderstorms  Fog  Heavy snow  Heavy precipitations  Wind > 20 kt
SIGMETs :     Misc.  Thunderstorms  Icing  Turbulence  Mountain Waves  Volcanic Ashes







- Airport Elevation : 53 ft
- IATA code : HAM


EDDH - Hamburg

CURRENT METAR :
  • 111720Z 31009KT 9999 -RA SCT020 BKN032 04/01 Q1020 NOSIG

EXPIRED METARs :
  • 111650Z 31008KT 9999 FEW010 BKN035 04/01 Q1020 NOSIG
  • 111620Z 31009KT 9999 SCT021 BKN036 05/01 Q1020 NOSIG
  • 111550Z 32007KT 9999 FEW019 BKN028 05/01 Q1020 NOSIG
  • 111520Z 30007KT 9999 FEW021 BKN028 05/01 Q1020 NOSIG
  • 111450Z 30009KT 9999 BKN025 05/01 Q1019 NOSIG

TAF TAF EDDH
Valid from the 11 at 12:00 until the 12 at 18:00 UTC


111100Z 1112/1218 32010KT 9999 FEW025
BECMG 1117/1120 32005KT
PROB30
TEMPO 1117/1218 BKN012
BECMG 1206/1209 03006KT
No reported NOTAMs for that airfield.



MET'MAP, your aeronautical weather chart ! - Copyright ORBIFLY December 2007 - Disclaimer

ORBIFLY MET'MAP TEAM :

Programming & Development : Alexandra Zaïnal
Concept & Development : Baudouin d'Aumeries
Co-Development & Prog : Marc-Olivier Méhu
Technical & hardware support : Manuel Goepfert

Contact : metmap@orbifly.com




SOURCES & CREDITS :

   NOAA